Briefing drone pour Beaurieux

Rechercher une autre localisation

Conditions de vol :


Nous sommes le : Mardi 25 janvier 2022
Il est 01:47 UTC (02:47 LT)

Lever de soleil : 06:59 UTC (07:59 LT)
Coucher de soleil : 16:55 UTC (17:55 LT)

Météo

L'essentiel des conditions de vol

VIGILANCE MÉTÉO FRANCE - Aisne (02)
Pas de vigilances particulieres
CARTE TEMSI
CARTES DES FRONTS
METAR de LFQA
LFQA 250130Z AUTO 09003KT 5000 BR NSC M02/M02 Q1032

Date d'émission: 25/01/2022
Heure d'émission: 01:30 UTC
Vent: 090° pour 3 KT (6 km/h)
Visibilité horizontale: 5000 m
Plafond : Pas de nuages significatifs (NSC)
Température: -2 °C
Point de rosée: -2 °C
Humidité: 100%
Pression (QNH): 1032 hPa
Conditions: Brume
Prévision 24h pour Reims (17 km)
Vent : 273° pour 1 KT (3 km/h)
Temperature Maxi: 2 °C
Temperature Min: 2 °C
Humidité : 82%
Condition : Ciel dégagé



Warning: count(): Parameter must be an array or an object that implements Countable in /homepages/6/d509196549/htdocs/droneoxygene/briefing.php on line 743
WEBCAM POUR BEAURIEUX

Réglementation

Voler en sécurité

CARTES AERONAUTIQUE 1/500.000
CARTES VAC (LFQA)
SUP AIP




Chargement des AIP...
NOTAM (BEAURIEUX + Terrain à proximité / FIR )




Chargement des NOTAMS...
CONTACT PREFECTURE 02


Avertissement : Les données mises à disposition sont indicatives. Oxygène Drone ne pourra être tenu responsable de dégâts causés aux biens et aux personnes.